Time;durP1;ratioP1;P1;durP2;ratioP2;P2;SDS_P1;SDS_P2;PMS_P1;PMS_P2;Temp;Humidity;BMP_temperature;BMP_pressure;BME280_temperature;BME280_humidity;BME280_pressure;Samples;Min_cycle;Max_cycle;Signal;HPM_P1;HPM_P2
2021/09/17 00:01:10;;;;;;;7.00;6.30;;;14.00;99.90;;;;;;5078311;28;20447;-78
2021/09/17 00:03:36;;;;;;;7.00;6.50;;;14.00;99.90;;;;;;5084015;28;20466;-78
2021/09/17 00:06:03;;;;;;;7.90;7.20;;;13.90;99.90;;;;;;5078031;28;20455;-78
2021/09/17 00:08:31;;;;;;;6.83;6.33;;;13.90;99.90;;;;;;5078125;28;20447;-78
2021/09/17 00:10:58;;;;;;;11.93;7.30;;;14.00;99.90;;;;;;5078015;28;20458;-78
2021/09/17 00:13:25;;;;;;;6.93;6.03;;;14.00;99.90;;;;;;5077860;28;20980;-78
2021/09/17 00:15:52;;;;;;;7.13;6.43;;;14.10;99.90;;;;;;5077663;28;20538;-78
2021/09/17 00:18:18;;;;;;;8.30;7.57;;;14.10;99.90;;;;;;5078311;28;20495;-78
2021/09/17 00:20:45;;;;;;;7.70;7.00;;;14.10;99.90;;;;;;5078173;28;20447;-80
2021/09/17 00:23:12;;;;;;;6.17;5.57;;;14.10;99.90;;;;;;5078099;28;20486;-80
2021/09/17 00:25:40;;;;;;;5.93;5.43;;;14.20;99.90;;;;;;5077386;28;20459;-78
2021/09/17 00:28:07;;;;;;;7.30;6.60;;;14.10;99.90;;;;;;5078254;28;20447;-78
2021/09/17 00:30:34;;;;;;;8.47;7.67;;;14.20;99.90;;;;;;5077866;28;20986;-78
2021/09/17 00:33:00;;;;;;;13.60;8.13;;;13.90;99.90;;;;;;5077836;28;20475;-79
2021/09/17 00:35:27;;;;;;;7.43;6.93;;;14.00;99.90;;;;;;5077749;28;20455;-78
2021/09/17 00:37:54;;;;;;;6.40;5.90;;;14.10;99.90;;;;;;5077693;28;20483;-80
2021/09/17 00:40:21;;;;;;;8.83;6.37;;;14.20;99.90;;;;;;5078308;28;20451;-78
2021/09/17 00:42:49;;;;;;;7.23;6.63;;;14.20;99.90;;;;;;5077819;28;20467;-78
2021/09/17 00:45:16;;;;;;;6.43;5.93;;;14.30;99.90;;;;;;5077669;28;20447;-78
2021/09/17 00:47:43;;;;;;;6.97;6.47;;;14.30;99.90;;;;;;5077049;28;20444;-78
2021/09/17 00:50:13;;;;;;;7.70;6.50;;;14.30;99.90;;;;;;5077813;28;20451;-78
2021/09/17 00:52:40;;;;;;;7.03;6.43;;;14.30;99.90;;;;;;5077537;28;20489;-78
2021/09/17 00:55:07;;;;;;;6.40;5.80;;;14.40;99.90;;;;;;5077386;28;20820;-78
2021/09/17 00:57:35;;;;;;;6.40;5.90;;;14.40;99.90;;;;;;5077222;28;20487;-78
2021/09/17 01:00:05;;;;;;;6.30;5.80;;;14.40;99.90;;;;;;5077727;28;21081;-78
2021/09/17 01:02:32;;;;;;;6.47;5.90;;;14.40;99.90;;;;;;5083143;28;20467;-78
2021/09/17 01:04:59;;;;;;;7.33;6.73;;;14.50;99.90;;;;;;5084039;28;20465;-78
2021/09/17 01:07:25;;;;;;;6.43;5.83;;;14.40;99.90;;;;;;5083559;28;20451;-80
2021/09/17 01:09:53;;;;;;;7.60;6.80;;;14.40;99.90;;;;;;5084473;28;20458;-79
2021/09/17 01:12:21;;;;;;;6.07;5.47;;;14.40;99.90;;;;;;5084066;28;20478;-78
2021/09/17 01:14:48;;;;;;;6.37;5.87;;;14.50;99.90;;;;;;5084034;28;20458;-78
2021/09/17 01:17:18;;;;;;;6.00;5.50;;;14.30;99.90;;;;;;5083678;28;20483;-78
2021/09/17 01:19:46;;;;;;;7.70;7.10;;;14.20;99.90;;;;;;5083850;28;20823;-78
2021/09/17 01:22:14;;;;;;;6.43;5.80;;;14.10;99.90;;;;;;5083834;28;20466;-78
2021/09/17 01:24:41;;;;;;;6.93;6.23;;;14.20;99.90;;;;;;5084001;28;20685;-79
2021/09/17 01:27:09;;;;;;;6.70;6.20;;;14.30;99.90;;;;;;5082842;28;20461;-80
2021/09/17 01:29:35;;;;;;;5.90;5.40;;;14.30;99.90;;;;;;5083722;28;20450;-80
2021/09/17 01:32:03;;;;;;;7.37;6.67;;;14.40;99.90;;;;;;5084293;28;20462;-78
2021/09/17 01:34:29;;;;;;;5.97;5.50;;;14.50;99.90;;;;;;5084100;28;20655;-80
2021/09/17 01:36:56;;;;;;;6.40;5.77;;;14.50;99.90;;;;;;5083557;28;20446;-80
2021/09/17 01:39:25;;;;;;;5.70;5.10;;;14.50;99.90;;;;;;5082780;28;20450;-80
2021/09/17 01:41:52;;;;;;;6.30;5.80;;;14.60;99.90;;;;;;5083913;28;20462;-78
2021/09/17 01:44:19;;;;;;;6.27;5.77;;;14.60;99.90;;;;;;5083600;28;20471;-79
2021/09/17 01:46:45;;;;;;;7.03;6.43;;;14.60;99.90;;;;;;5082858;28;20446;-78
2021/09/17 01:49:12;;;;;;;7.70;7.10;;;14.60;99.90;;;;;;5083199;28;20442;-78
2021/09/17 01:51:39;;;;;;;6.77;6.27;;;14.60;99.90;;;;;;5083716;28;20458;-78
2021/09/17 01:54:06;;;;;;;5.30;4.90;;;14.70;99.90;;;;;;5083425;28;20478;-78
2021/09/17 01:56:35;;;;;;;6.53;5.93;;;14.70;99.90;;;;;;5083815;28;20451;-78
2021/09/17 01:59:03;;;;;;;5.70;5.20;;;14.70;99.90;;;;;;5083350;28;20485;-78
2021/09/17 02:01:29;;;;;;;6.83;6.30;;;14.70;99.90;;;;;;5083792;28;20455;-78
2021/09/17 02:03:56;;;;;;;6.20;5.63;;;14.70;99.90;;;;;;5089888;28;20463;-78
2021/09/17 02:06:25;;;;;;;7.13;6.53;;;14.70;99.90;;;;;;5098341;28;20798;-79
2021/09/17 02:08:55;;;;;;;9.40;5.77;;;14.80;99.90;;;;;;5098590;28;20446;-78
2021/09/17 02:11:22;;;;;;;7.13;5.90;;;14.80;99.90;;;;;;5088331;28;20861;-78
2021/09/17 02:13:50;;;;;;;6.93;6.43;;;14.80;99.90;;;;;;5079551;28;21026;-78
2021/09/17 02:16:17;;;;;;;7.03;6.43;;;14.80;99.90;;;;;;5080038;28;20451;-79
2021/09/17 02:18:44;;;;;;;6.97;6.47;;;14.90;99.90;;;;;;5080484;28;20483;-78
2021/09/17 02:21:17;;;;;;;6.33;5.83;;;14.90;99.90;;;;;;5080119;28;20456;-78
2021/09/17 02:23:44;;;;;;;6.93;6.30;;;14.90;99.90;;;;;;5080272;28;20474;-78
2021/09/17 02:26:11;;;;;;;6.33;5.73;;;14.90;99.90;;;;;;5079421;28;20463;-78
2021/09/17 02:28:38;;;;;;;7.13;5.80;;;14.90;99.90;;;;;;5079744;28;20447;-78
2021/09/17 02:31:06;;;;;;;7.27;6.60;;;15.00;99.90;;;;;;5079705;28;20443;-78
2021/09/17 02:33:33;;;;;;;8.07;6.50;;;15.00;99.90;;;;;;5079326;28;20532;-78
2021/09/17 02:36:00;;;;;;;7.23;6.63;;;15.00;99.90;;;;;;5078161;28;20953;-78
2021/09/17 02:38:27;;;;;;;7.20;6.57;;;15.00;99.90;;;;;;5079678;28;20476;-78
2021/09/17 02:40:54;;;;;;;7.30;6.60;;;15.00;99.90;;;;;;5080090;28;20455;-78
2021/09/17 02:43:22;;;;;;;6.80;6.37;;;15.10;99.90;;;;;;5079333;28;20846;-78
2021/09/17 02:45:48;;;;;;;5.70;5.20;;;15.10;99.90;;;;;;5071396;28;20443;-79
2021/09/17 02:48:17;;;;;;;6.40;5.80;;;15.10;99.90;;;;;;5078949;28;20451;-78
2021/09/17 02:50:43;;;;;;;7.93;6.00;;;15.10;99.90;;;;;;5079820;28;20450;-78
2021/09/17 02:53:10;;;;;;;6.50;6.00;;;15.10;99.90;;;;;;5079716;28;20491;-78
2021/09/17 02:55:37;;;;;;;6.23;5.63;;;15.10;99.90;;;;;;5079589;28;20459;-78
2021/09/17 02:58:05;;;;;;;6.73;6.13;;;15.00;99.90;;;;;;5079115;28;20845;-80
2021/09/17 03:00:32;;;;;;;7.00;6.37;;;14.90;99.90;;;;;;5078822;28;20603;-80
2021/09/17 03:02:59;;;;;;;7.20;6.60;;;15.00;99.90;;;;;;5079714;28;20472;-80
2021/09/17 03:05:27;;;;;;;6.30;5.77;;;15.00;99.90;;;;;;5078986;28;20447;-80
2021/09/17 03:07:54;;;;;;;6.80;6.20;;;15.00;99.90;;;;;;5078892;28;20451;-80
2021/09/17 03:10:20;;;;;;;6.27;5.77;;;15.00;99.90;;;;;;5079163;28;20463;-80
2021/09/17 03:12:47;;;;;;;6.30;5.87;;;15.00;99.90;;;;;;5078696;28;20478;-80
2021/09/17 03:15:15;;;;;;;6.73;6.00;;;15.00;99.90;;;;;;5078592;28;20455;-80
2021/09/17 03:17:42;;;;;;;6.43;5.83;;;15.00;99.90;;;;;;5078519;28;20475;-80
2021/09/17 03:20:10;;;;;;;8.03;5.37;;;15.00;99.90;;;;;;5078893;28;20462;-80
2021/09/17 03:22:38;;;;;;;6.20;5.63;;;15.00;99.90;;;;;;5078764;28;20504;-80
2021/09/17 03:25:05;;;;;;;5.93;5.43;;;15.00;99.90;;;;;;5077337;28;20452;-80
2021/09/17 03:27:32;;;;;;;6.47;5.87;;;15.00;99.90;;;;;;5078736;28;20475;-80
2021/09/17 03:29:59;;;;;;;6.10;5.50;;;15.00;99.90;;;;;;5078583;28;20451;-80
2021/09/17 03:32:26;;;;;;;6.30;5.80;;;15.00;99.90;;;;;;5078741;28;20546;-80
2021/09/17 03:34:52;;;;;;;6.53;5.93;;;15.00;99.90;;;;;;5078659;28;20452;-80
2021/09/17 03:37:19;;;;;;;6.30;5.70;;;15.00;99.90;;;;;;5078598;28;20817;-80
2021/09/17 03:39:47;;;;;;;7.70;7.10;;;14.70;99.90;;;;;;5078356;28;20484;-80
2021/09/17 03:42:14;;;;;;;8.47;6.93;;;14.60;99.90;;;;;;5078212;28;20447;-80
2021/09/17 03:44:41;;;;;;;7.43;6.20;;;14.60;99.90;;;;;;5078268;28;20447;-80
2021/09/17 03:47:08;;;;;;;7.77;7.10;;;14.70;99.90;;;;;;5077542;28;20459;-80
2021/09/17 03:49:34;;;;;;;7.90;7.20;;;14.70;99.90;;;;;;5077577;28;20454;-80
2021/09/17 03:52:01;;;;;;;6.30;5.80;;;14.80;99.90;;;;;;5078303;28;20452;-79
2021/09/17 03:54:28;;;;;;;8.57;7.67;;;14.80;99.90;;;;;;5078014;28;20451;-80
2021/09/17 03:56:57;;;;;;;7.03;6.27;;;14.90;99.90;;;;;;5077544;28;20462;-80
2021/09/17 03:59:24;;;;;;;8.60;7.23;;;14.90;99.90;;;;;;5078265;28;20490;-80
2021/09/17 04:01:51;;;;;;;6.93;6.33;;;14.90;99.90;;;;;;5077842;28;20452;-80
2021/09/17 04:04:17;;;;;;;5.80;5.30;;;14.90;99.90;;;;;;5077975;28;20482;-80
2021/09/17 04:06:45;;;;;;;7.20;6.50;;;14.90;99.90;;;;;;5078406;28;20448;-80
2021/09/17 04:09:12;;;;;;;7.03;6.40;;;15.00;99.90;;;;;;5078025;28;20447;-80
2021/09/17 04:11:39;;;;;;;8.10;5.97;;;15.00;99.90;;;;;;5077265;28;20452;-80
2021/09/17 04:14:07;;;;;;;6.17;5.60;;;15.00;99.90;;;;;;5077733;28;20479;-80
2021/09/17 04:16:33;;;;;;;6.70;6.10;;;15.00;99.90;;;;;;5077166;28;20474;-80
2021/09/17 04:19:01;;;;;;;6.03;5.57;;;15.00;99.90;;;;;;5078105;28;20524;-80
2021/09/17 04:21:27;;;;;;;8.10;7.30;;;15.00;99.90;;;;;;5077705;28;20447;-80
2021/09/17 04:23:54;;;;;;;7.47;6.77;;;15.00;99.90;;;;;;5077428;28;20963;-80
2021/09/17 04:26:22;;;;;;;7.03;6.37;;;15.00;99.90;;;;;;5077410;28;20443;-80
2021/09/17 04:28:49;;;;;;;7.13;6.60;;;15.00;99.90;;;;;;5077548;28;20458;-80
2021/09/17 04:31:18;;;;;;;7.00;6.30;;;15.10;99.90;;;;;;5077915;28;20459;-80
2021/09/17 04:33:44;;;;;;;9.13;8.30;;;15.10;99.90;;;;;;5076605;28;20471;-80
2021/09/17 04:36:11;;;;;;;9.10;8.20;;;15.10;99.90;;;;;;5076381;28;20964;-80
2021/09/17 04:38:38;;;;;;;8.97;8.27;;;15.00;99.90;;;;;;5076808;28;20475;-80
2021/09/17 04:41:04;;;;;;;9.20;8.40;;;14.60;99.90;;;;;;5077592;28;20803;-80
2021/09/17 04:43:31;;;;;;;8.07;7.47;;;14.60;99.90;;;;;;5077232;28;20471;-80
2021/09/17 04:45:58;;;;;;;10.20;9.30;;;14.60;99.90;;;;;;5076843;28;20465;-80
2021/09/17 04:48:26;;;;;;;7.60;6.90;;;14.70;99.90;;;;;;5076960;28;20451;-80
2021/09/17 04:50:53;;;;;;;9.30;8.60;;;14.70;99.90;;;;;;5076298;28;20455;-80
2021/09/17 04:53:20;;;;;;;9.83;8.77;;;14.80;99.90;;;;;;5077379;28;20478;-80
2021/09/17 04:55:47;;;;;;;8.30;7.60;;;14.80;99.90;;;;;;5077100;28;20452;-80
2021/09/17 04:58:14;;;;;;;8.47;7.67;;;14.80;99.90;;;;;;5077244;28;20517;-80
2021/09/17 05:00:41;;;;;;;11.53;6.90;;;14.90;99.90;;;;;;5077200;28;20451;-80
2021/09/17 05:03:07;;;;;;;8.87;7.87;;;14.90;99.90;;;;;;5077107;28;20980;-80
2021/09/17 05:05:36;;;;;;;9.57;8.67;;;14.90;99.90;;;;;;5076554;28;20815;-80
2021/09/17 05:08:03;;;;;;;10.03;9.03;;;14.90;99.90;;;;;;5077299;28;20848;-80
2021/09/17 05:10:29;;;;;;;9.63;8.73;;;14.90;99.90;;;;;;5077006;28;20443;-79
2021/09/17 05:12:56;;;;;;;9.73;8.83;;;14.90;99.90;;;;;;5077119;28;20467;-80
2021/09/17 05:15:23;;;;;;;10.00;9.07;;;14.90;99.90;;;;;;5077317;28;20451;-80
2021/09/17 05:17:50;;;;;;;8.90;8.00;;;14.90;99.90;;;;;;5076480;28;22052;-80
2021/09/17 05:20:18;;;;;;;7.50;6.90;;;14.90;99.90;;;;;;5077304;28;20490;-80
2021/09/17 05:22:46;;;;;;;10.60;7.43;;;14.80;99.90;;;;;;5076716;28;20467;-80
2021/09/17 05:25:13;;;;;;;8.60;7.70;;;14.80;99.90;;;;;;5076910;28;20473;-79
2021/09/17 05:27:39;;;;;;;7.10;6.50;;;14.80;99.90;;;;;;5076845;28;20451;-80
2021/09/17 05:30:07;;;;;;;9.10;8.23;;;14.70;99.90;;;;;;5076307;28;20455;-80
2021/09/17 05:32:34;;;;;;;8.47;7.67;;;14.70;99.90;;;;;;5077346;28;20471;-80
2021/09/17 05:35:01;;;;;;;7.87;7.17;;;14.70;99.90;;;;;;5076795;28;20474;-80
2021/09/17 05:37:28;;;;;;;8.40;7.80;;;14.60;99.90;;;;;;5077234;28;20447;-80
2021/09/17 05:39:56;;;;;;;8.67;7.80;;;14.60;99.90;;;;;;5076993;28;20505;-80
2021/09/17 05:42:23;;;;;;;10.20;9.23;;;14.60;99.90;;;;;;5076979;28;20478;-79
2021/09/17 05:44:50;;;;;;;8.77;7.87;;;14.50;99.90;;;;;;5076679;28;20447;-80
2021/09/17 05:47:17;;;;;;;8.90;8.10;;;14.50;99.90;;;;;;5076007;28;20454;-80
2021/09/17 05:49:44;;;;;;;9.90;9.00;;;14.50;99.90;;;;;;5079812;28;20454;-79
2021/09/17 05:52:10;;;;;;;11.30;10.20;;;14.50;99.90;;;;;;5080241;28;20542;-80
2021/09/17 05:54:39;;;;;;;10.97;9.80;;;14.50;99.90;;;;;;5118121;22;20520;-82
2021/09/17 05:57:07;;;;;;;10.03;9.07;;;14.50;99.90;;;;;;5094560;28;20447;-82
2021/09/17 05:59:34;;;;;;;9.93;8.97;;;14.50;99.90;;;;;;5093689;28;20490;-81
2021/09/17 06:02:01;;;;;;;10.57;9.57;;;14.60;99.90;;;;;;5105394;28;20473;-81
2021/09/17 06:04:28;;;;;;;11.57;10.40;;;14.70;99.90;;;;;;5097116;28;20562;-81
2021/09/17 06:06:54;;;;;;;13.23;12.03;;;14.70;99.90;;;;;;5085899;28;20534;-80
2021/09/17 06:09:21;;;;;;;9.77;8.90;;;14.80;99.90;;;;;;5097150;28;20455;-82
2021/09/17 06:11:48;;;;;;;10.10;9.20;;;14.90;99.90;;;;;;5098884;28;20443;-82
2021/09/17 06:14:16;;;;;;;9.03;8.13;;;15.00;99.90;;;;;;5083973;28;20469;-81
2021/09/17 06:16:43;;;;;;;10.00;8.63;;;15.10;99.90;;;;;;5093167;28;20445;-81
2021/09/17 06:19:09;;;;;;;9.60;8.67;;;15.20;99.90;;;;;;5093128;28;20499;-82
2021/09/17 06:21:36;;;;;;;9.93;8.93;;;15.20;99.90;;;;;;5091368;28;20459;-82
2021/09/17 06:24:04;;;;;;;10.03;9.10;;;15.30;99.90;;;;;;5098990;28;20470;-82
2021/09/17 06:26:31;;;;;;;9.07;8.27;;;15.40;99.90;;;;;;5090204;28;20455;-82
2021/09/17 06:28:59;;;;;;;9.97;9.07;;;15.40;99.90;;;;;;5081735;28;20454;-82
2021/09/17 06:31:28;;;;;;;10.43;9.37;;;15.50;99.90;;;;;;5082221;28;20463;-81
2021/09/17 06:33:55;;;;;;;8.67;7.83;;;15.60;99.90;;;;;;5079886;28;20485;-80
2021/09/17 06:36:22;;;;;;;9.20;8.30;;;15.60;99.90;;;;;;5080755;28;20459;-82
2021/09/17 06:38:49;;;;;;;8.87;8.07;;;15.70;99.90;;;;;;5080428;28;20480;-82
2021/09/17 06:41:16;;;;;;;10.20;9.00;;;15.70;99.90;;;;;;5080912;28;20443;-81
2021/09/17 06:43:42;;;;;;;10.03;8.80;;;15.80;99.90;;;;;;5083000;28;20463;-81
2021/09/17 06:46:09;;;;;;;10.40;8.93;;;15.90;99.90;;;;;;5091093;28;20445;-79
2021/09/17 06:48:37;;;;;;;9.37;8.47;;;16.00;99.90;;;;;;5065172;28;20465;-80
2021/09/17 06:51:04;;;;;;;12.10;11.00;;;16.10;99.90;;;;;;5088757;28;20444;-80
2021/09/17 06:53:31;;;;;;;9.57;8.67;;;16.10;99.90;;;;;;5077532;28;20998;-81
2021/09/17 06:55:58;;;;;;;11.60;10.40;;;16.20;99.90;;;;;;5075069;28;20867;-81
2021/09/17 06:58:29;;;;;;;10.90;10.00;;;16.30;99.90;;;;;;5078813;28;20451;-81
2021/09/17 07:00:56;;;;;;;11.70;9.20;;;16.40;99.90;;;;;;5089657;28;20475;-80
2021/09/17 07:03:22;;;;;;;9.60;8.80;;;16.50;99.90;;;;;;5086684;28;20881;-80
2021/09/17 07:05:51;;;;;;;10.67;9.67;;;16.50;99.90;;;;;;5088998;28;20446;-80
2021/09/17 07:08:19;;;;;;;10.57;9.57;;;16.70;99.90;;;;;;5099891;28;20446;-80
2021/09/17 07:10:47;;;;;;;10.60;9.60;;;16.70;99.90;;;;;;5091514;28;20447;-81
2021/09/17 07:13:14;;;;;;;9.83;8.53;;;16.90;99.90;;;;;;5081444;28;20467;-81
2021/09/17 07:15:41;;;;;;;9.73;8.73;;;17.00;99.90;;;;;;5084296;28;20790;-82
2021/09/17 07:18:09;;;;;;;10.60;9.60;;;17.10;99.90;;;;;;5097026;28;20983;-81
2021/09/17 07:20:38;;;;;;;11.20;10.10;;;17.20;99.90;;;;;;5091424;28;20484;-82
2021/09/17 07:23:07;;;;;;;12.10;9.00;;;17.40;99.90;;;;;;5075937;28;20469;-81
2021/09/17 07:25:35;;;;;;;10.97;9.93;;;17.40;99.90;;;;;;5078720;28;20443;-83
2021/09/17 07:28:02;;;;;;;10.67;9.77;;;17.50;99.90;;;;;;5087119;28;20458;-82
2021/09/17 07:30:31;;;;;;;9.50;8.60;;;17.60;99.90;;;;;;5093544;28;20452;-82
2021/09/17 07:32:58;;;;;;;10.33;9.00;;;17.60;99.90;;;;;;5098124;28;20471;-82
2021/09/17 07:35:25;;;;;;;11.80;8.87;;;17.60;99.90;;;;;;5097634;28;20441;-81
2021/09/17 07:37:52;;;;;;;10.80;9.80;;;17.70;99.90;;;;;;5098418;28;20456;-82
2021/09/17 07:40:21;;;;;;;9.17;8.37;;;17.80;99.90;;;;;;5098056;28;20488;-81
2021/09/17 07:42:49;;;;;;;10.10;9.13;;;17.80;99.90;;;;;;5098341;28;20472;-82
2021/09/17 07:45:16;;;;;;;8.77;7.97;;;17.80;99.90;;;;;;5097825;28;20547;-82
2021/09/17 07:47:43;;;;;;;9.20;8.30;;;17.90;99.90;;;;;;5097923;28;20456;-82
2021/09/17 07:50:12;;;;;;;8.23;7.47;;;18.00;99.90;;;;;;5097343;28;20479;-81
2021/09/17 07:52:39;;;;;;;9.30;8.50;;;18.00;99.90;;;;;;5097569;28;20937;-82
2021/09/17 07:55:07;;;;;;;8.90;7.50;;;18.10;99.90;;;;;;5097607;28;20445;-80
2021/09/17 07:57:35;;;;;;;8.47;7.77;;;18.10;99.90;;;;;;5097415;28;20452;-82
2021/09/17 08:00:19;;;;;;;9.33;7.83;;;18.10;99.90;;;;;;5097140;28;20483;-81
2021/09/17 08:02:46;;;;;;;11.77;9.17;;;18.20;99.90;;;;;;5097209;28;20508;-82
2021/09/17 08:05:14;;;;;;;9.40;8.50;;;18.30;99.90;;;;;;5097153;28;20461;-82
2021/09/17 08:07:41;;;;;;;9.00;8.23;;;18.30;99.90;;;;;;5096340;28;20457;-82
2021/09/17 08:10:08;;;;;;;9.33;8.50;;;18.40;99.90;;;;;;5096230;28;20449;-80
2021/09/17 08:12:36;;;;;;;8.67;8.07;;;18.40;99.90;;;;;;5095657;28;20798;-82
2021/09/17 08:15:04;;;;;;;9.10;8.20;;;18.40;99.90;;;;;;5095859;28;20460;-81
2021/09/17 08:17:31;;;;;;;8.27;7.47;;;18.50;99.90;;;;;;5095786;28;20456;-82
2021/09/17 08:19:58;;;;;;;7.77;7.10;;;18.60;99.90;;;;;;5096417;28;20484;-81
2021/09/17 08:22:24;;;;;;;8.77;7.90;;;18.70;99.90;;;;;;5096182;28;20448;-82
2021/09/17 08:24:51;;;;;;;9.37;8.57;;;18.90;99.90;;;;;;5095722;28;20909;-82
2021/09/17 08:27:18;;;;;;;9.20;8.37;;;19.00;99.90;;;;;;5094648;28;20456;-81
2021/09/17 08:29:46;;;;;;;8.57;7.77;;;19.20;99.90;;;;;;5095518;28;20452;-81
2021/09/17 08:32:13;;;;;;;8.93;8.13;;;19.20;99.90;;;;;;5106983;28;20457;-82
2021/09/17 08:34:39;;;;;;;7.80;7.10;;;19.40;99.90;;;;;;5103216;28;20484;-82
2021/09/17 08:37:08;;;;;;;9.50;8.60;;;19.40;99.90;;;;;;5094163;28;20962;-81
2021/09/17 08:39:37;;;;;;;8.10;7.40;;;19.50;99.90;;;;;;5094525;28;20474;-82
2021/09/17 08:42:06;;;;;;;9.60;8.80;;;19.60;99.90;;;;;;5100693;28;20481;-81
2021/09/17 08:44:33;;;;;;;9.60;8.60;;;19.60;99.90;;;;;;5103102;28;20475;-82
2021/09/17 08:47:02;;;;;;;10.70;9.80;;;19.70;99.90;;;;;;5094114;28;20458;-82
2021/09/17 08:49:29;;;;;;;10.67;9.80;;;19.70;99.90;;;;;;5094584;28;20451;-81
2021/09/17 08:51:55;;;;;;;11.90;10.70;;;19.80;99.90;;;;;;5094058;28;20449;-82
2021/09/17 08:54:22;;;;;;;14.67;10.23;;;19.90;99.90;;;;;;5093406;28;20855;-80
2021/09/17 08:56:49;;;;;;;10.37;9.47;;;19.90;99.90;;;;;;5093092;28;20473;-81
2021/09/17 08:59:16;;;;;;;10.60;9.40;;;19.90;99.90;;;;;;5093400;28;20954;-82
2021/09/17 09:01:42;;;;;;;11.17;10.10;;;20.10;99.90;;;;;;5093507;28;20450;-81
2021/09/17 09:04:12;;;;;;;10.57;9.57;;;20.10;99.90;;;;;;5093649;28;20985;-81
2021/09/17 09:06:41;;;;;;;10.87;9.77;;;20.10;99.90;;;;;;5092990;28;20552;-82
2021/09/17 09:09:16;;;;;;;11.47;10.57;;;20.20;99.90;;;;;;5093536;28;20507;-82
2021/09/17 09:11:45;;;;;;;9.80;8.90;;;20.30;99.90;;;;;;5092894;28;20506;-82
2021/09/17 09:14:14;;;;;;;9.30;8.50;;;20.40;99.90;;;;;;5092808;28;20490;-81
2021/09/17 09:16:42;;;;;;;9.63;8.83;;;20.50;99.90;;;;;;5092596;28;20454;-81
2021/09/17 09:19:33;;;;;;;9.87;8.93;;;20.60;99.90;;;;;;5093504;28;20454;-82
2021/09/17 09:22:11;;;;;;;9.60;8.60;;;20.80;99.50;;;;;;5093783;28;21011;-82
2021/09/17 09:24:41;;;;;;;13.07;9.80;;;20.90;99.90;;;;;;5096831;28;20477;-82
2021/09/17 09:27:12;;;;;;;12.37;9.90;;;21.00;99.90;;;;;;5096911;28;20450;-81
2021/09/17 09:29:40;;;;;;;9.70;8.90;;;21.10;99.90;;;;;;5096887;28;20446;-82
2021/09/17 09:32:07;;;;;;;8.07;7.37;;;21.10;99.20;;;;;;5096588;28;20450;-81
2021/09/17 09:34:51;;;;;;;10.30;9.33;;;21.20;99.20;;;;;;5096269;28;20481;-82
2021/09/17 09:37:18;;;;;;;9.17;8.37;;;21.20;98.30;;;;;;5096254;28;20445;-81
2021/09/17 09:39:58;;;;;;;9.00;8.20;;;21.20;98.80;;;;;;5096063;28;20492;-82
2021/09/17 09:42:36;;;;;;;8.13;7.43;;;21.20;99.30;;;;;;5096551;28;20447;-82
2021/09/17 09:45:13;;;;;;;8.37;7.57;;;21.40;99.60;;;;;;5095930;28;20450;-78
2021/09/17 09:47:41;;;;;;;7.53;7.00;;;21.60;99.70;;;;;;5096191;28;20504;-81
2021/09/17 09:50:12;;;;;;;9.43;8.63;;;21.80;98.20;;;;;;5096682;28;20439;-81
2021/09/17 09:52:39;;;;;;;8.20;7.50;;;22.00;97.40;;;;;;5096245;28;20449;-82
2021/09/17 09:55:09;;;;;;;10.70;9.70;;;22.00;96.60;;;;;;5095931;28;20823;-80
2021/09/17 09:57:36;;;;;;;9.70;8.90;;;22.00;96.40;;;;;;5095988;28;20534;-82
2021/09/17 10:00:08;;;;;;;8.70;8.00;;;21.90;97.30;;;;;;5096064;28;20480;-81
2021/09/17 10:02:36;;;;;;;8.13;7.43;;;22.00;97.20;;;;;;5095814;28;20570;-81
2021/09/17 10:05:03;;;;;;;10.27;9.00;;;22.00;96.30;;;;;;5095994;28;20451;-78
2021/09/17 10:07:31;;;;;;;8.90;8.07;;;21.80;96.60;;;;;;5095561;28;20465;-82
2021/09/17 10:09:58;;;;;;;8.87;8.17;;;21.60;96.70;;;;;;5095787;28;20454;-82
2021/09/17 10:12:27;;;;;;;7.30;6.67;;;21.70;97.00;;;;;;5095614;28;20443;-82
2021/09/17 10:14:55;;;;;;;7.00;6.30;;;21.70;96.90;;;;;;5095670;28;20459;-82
2021/09/17 10:17:27;;;;;;;6.07;5.57;;;21.90;96.50;;;;;;5095487;28;20443;-82
2021/09/17 10:19:54;;;;;;;6.10;5.53;;;22.10;96.60;;;;;;5095646;28;20484;-82
2021/09/17 10:22:33;;;;;;;6.77;6.17;;;22.30;95.80;;;;;;5095650;28;20447;-82
2021/09/17 10:25:12;;;;;;;6.43;5.80;;;22.50;94.70;;;;;;5095583;28;20960;-82
2021/09/17 10:27:41;;;;;;;6.50;5.93;;;22.60;94.90;;;;;;5095153;28;20444;-82
2021/09/17 10:30:10;;;;;;;6.30;5.80;;;22.70;94.80;;;;;;5095602;28;20809;-82
2021/09/17 10:32:43;;;;;;;6.00;5.50;;;22.70;95.10;;;;;;5096765;28;20532;-84
2021/09/17 10:35:12;;;;;;;5.63;5.23;;;22.80;93.80;;;;;;5094737;28;20448;-79
2021/09/17 10:38:16;;;;;;;5.93;5.37;;;22.80;92.90;;;;;;5095295;28;20544;-82
2021/09/17 10:40:51;;;;;;;6.00;5.50;;;22.90;93.40;;;;;;5094733;28;20622;-82
2021/09/17 10:43:26;;;;;;;5.33;4.93;;;23.00;93.10;;;;;;5095089;28;20848;-82
2021/09/17 10:45:55;;;;;;;5.00;4.60;;;23.10;93.00;;;;;;5094858;28;20463;-82
2021/09/17 10:48:23;;;;;;;6.53;6.00;;;23.20;93.50;;;;;;5094988;28;20548;-82
2021/09/17 10:50:53;;;;;;;5.17;4.67;;;23.20;91.30;;;;;;5094809;28;20641;-82
2021/09/17 10:54:06;;;;;;;5.20;4.90;;;23.10;92.30;;;;;;5094857;28;20492;-82
2021/09/17 10:57:08;;;;;;;5.07;4.70;;;23.10;92.50;;;;;;5094602;28;20450;-82
2021/09/17 10:59:46;;;;;;;5.20;4.80;;;23.00;91.70;;;;;;5094852;28;20458;-82
2021/09/17 11:02:16;;;;;;;4.93;4.37;;;23.00;91.60;;;;;;5094667;28;21010;-82
2021/09/17 11:04:46;;;;;;;3.70;3.40;;;23.10;91.60;;;;;;5094380;28;21048;-82
2021/09/17 11:07:36;;;;;;;4.33;4.00;;;23.20;91.20;;;;;;5095672;28;20442;-85
2021/09/17 11:10:06;;;;;;;3.90;3.70;;;23.60;88.70;;;;;;5096499;28;20537;-82
2021/09/17 11:12:36;;;;;;;3.13;2.83;;;23.60;88.20;;;;;;5094312;28;20955;-82
2021/09/17 11:15:06;;;;;;;2.50;2.40;;;23.60;87.90;;;;;;5095295;28;20449;-82
2021/09/17 11:17:41;;;;;;;2.20;2.10;;;23.60;83.70;;;;;;5107401;28;20462;-82
2021/09/17 11:20:11;;;;;;;3.20;2.90;;;23.40;81.50;;;;;;5108883;28;20488;-81
2021/09/17 11:22:59;;;;;;;3.03;2.83;;;23.30;80.90;;;;;;5105842;28;20452;-82
2021/09/17 11:25:33;;;;;;;3.80;3.40;;;23.20;79.10;;;;;;5097560;28;20474;-82
2021/09/17 11:28:02;;;;;;;3.53;3.33;;;23.00;81.40;;;;;;5094731;28;20443;-82
2021/09/17 11:30:31;;;;;;;3.50;3.20;;;22.70;82.30;;;;;;5094559;28;20448;-82
2021/09/17 11:32:59;;;;;;;2.33;2.23;;;22.60;84.60;;;;;;5094325;28;20476;-82
2021/09/17 11:35:25;;;;;;;2.07;1.97;;;22.50;85.10;;;;;;5093931;28;20828;-82
2021/09/17 11:37:55;;;;;;;2.30;2.20;;;22.30;82.40;;;;;;5094764;28;20463;-82
2021/09/17 11:40:22;;;;;;;3.20;3.00;;;22.20;81.90;;;;;;5094706;28;20573;-82
2021/09/17 11:42:49;;;;;;;7.20;3.20;;;22.20;83.20;;;;;;5094593;28;20471;-82
2021/09/17 11:45:18;;;;;;;2.20;2.10;;;21.90;83.50;;;;;;5094385;28;20456;-82
2021/09/17 11:47:48;;;;;;;2.50;2.40;;;21.90;84.90;;;;;;5094283;28;20448;-82
2021/09/17 11:50:16;;;;;;;2.93;2.73;;;21.90;86.10;;;;;;5094385;28;20454;-82
2021/09/17 11:55:20;;;;;;;3.53;3.33;;;21.50;80.90;;;;;;5098312;28;20484;-82
2021/09/17 11:57:49;;;;;;;4.30;3.90;;;21.20;86.10;;;;;;5098724;28;20500;-79
2021/09/17 12:00:18;;;;;;;4.40;4.00;;;21.20;88.60;;;;;;5098509;28;20444;-81
2021/09/17 12:02:46;;;;;;;4.67;4.33;;;21.10;90.40;;;;;;5099792;28;20529;-82
2021/09/17 12:05:18;;;;;;;3.60;3.30;;;21.10;90.00;;;;;;5078612;28;20455;-82
2021/09/17 12:07:48;;;;;;;3.67;3.40;;;21.20;90.40;;;;;;5079035;28;20705;-82
2021/09/17 12:10:17;;;;;;;3.13;2.93;;;21.40;90.40;;;;;;5078801;28;20462;-81
2021/09/17 12:12:47;;;;;;;3.90;3.70;;;21.50;90.40;;;;;;5079204;28;20452;-82
2021/09/17 12:15:24;;;;;;;4.50;4.20;;;21.70;90.00;;;;;;5078938;28;20945;-82
2021/09/17 12:17:59;;;;;;;3.57;3.37;;;21.60;87.70;;;;;;5079311;28;20452;-81
2021/09/17 12:20:40;;;;;;;3.40;3.10;;;21.60;89.30;;;;;;5078867;28;20821;-82
2021/09/17 12:23:07;;;;;;;3.07;2.77;;;21.70;88.70;;;;;;5078748;28;20468;-82
2021/09/17 12:25:34;;;;;;;2.73;2.53;;;21.80;88.70;;;;;;5078434;28;20459;-82
2021/09/17 12:28:04;;;;;;;3.90;3.60;;;21.90;88.90;;;;;;5078786;28;20457;-82
2021/09/17 12:30:32;;;;;;;4.00;3.80;;;22.20;88.50;;;;;;5078828;28;20451;-82
2021/09/17 12:33:13;;;;;;;3.90;3.60;;;22.30;89.30;;;;;;5078410;28;20452;-82
2021/09/17 12:35:43;;;;;;;4.63;3.80;;;22.50;90.00;;;;;;5077904;28;20457;-82
2021/09/17 12:38:11;;;;;;;5.73;4.20;;;22.70;90.30;;;;;;5078834;28;20451;-82
2021/09/17 12:40:41;;;;;;;4.00;3.70;;;22.90;87.30;;;;;;5078968;28;20480;-82
2021/09/17 12:43:11;;;;;;;4.57;3.90;;;22.90;86.80;;;;;;5078421;28;20475;-83
2021/09/17 12:45:41;;;;;;;3.87;3.57;;;23.20;83.90;;;;;;5078254;28;20888;-82
2021/09/17 12:48:10;;;;;;;3.73;3.43;;;23.40;83.70;;;;;;5078187;28;20510;-81
2021/09/17 12:50:39;;;;;;;3.87;3.67;;;23.30;81.20;;;;;;5078459;28;20454;-82
2021/09/17 12:53:11;;;;;;;4.80;3.30;;;23.40;84.10;;;;;;5078278;28;20536;-82
2021/09/17 12:55:38;;;;;;;3.50;3.20;;;23.30;80.80;;;;;;5078486;28;20943;-81